sensor_id;sensor_type;location;lat;lon;timestamp;P1;durP1;ratioP1;P2;durP2;ratioP2
22234;SDS011;11286;45.596;5.284;2022-10-15T00:00:06;2.70;;;1.50;;
22234;SDS011;11286;45.596;5.284;2022-10-15T00:02:32;2.15;;;1.38;;
22234;SDS011;11286;45.596;5.284;2022-10-15T00:04:58;1.77;;;1.67;;
22234;SDS011;11286;45.596;5.284;2022-10-15T00:07:23;2.35;;;1.48;;
22234;SDS011;11286;45.596;5.284;2022-10-15T00:09:49;2.67;;;1.65;;
22234;SDS011;11286;45.596;5.284;2022-10-15T00:12:15;5.38;;;1.50;;
22234;SDS011;11286;45.596;5.284;2022-10-15T00:14:40;2.10;;;1.42;;
22234;SDS011;11286;45.596;5.284;2022-10-15T00:17:06;2.03;;;1.85;;
22234;SDS011;11286;45.596;5.284;2022-10-15T00:19:32;1.90;;;1.50;;
22234;SDS011;11286;45.596;5.284;2022-10-15T00:21:58;2.80;;;1.65;;
22234;SDS011;11286;45.596;5.284;2022-10-15T00:24:23;1.75;;;1.63;;
22234;SDS011;11286;45.596;5.284;2022-10-15T00:26:49;1.70;;;1.60;;
22234;SDS011;11286;45.596;5.284;2022-10-15T00:29:15;1.85;;;1.60;;
22234;SDS011;11286;45.596;5.284;2022-10-15T00:31:40;2.00;;;1.70;;
22234;SDS011;11286;45.596;5.284;2022-10-15T00:34:06;2.33;;;1.70;;
22234;SDS011;11286;45.596;5.284;2022-10-15T00:36:33;4.95;;;1.70;;
22234;SDS011;11286;45.596;5.284;2022-10-15T00:38:59;2.97;;;1.60;;
22234;SDS011;11286;45.596;5.284;2022-10-15T00:41:27;2.03;;;1.70;;
22234;SDS011;11286;45.596;5.284;2022-10-15T00:43:57;2.10;;;1.60;;
22234;SDS011;11286;45.596;5.284;2022-10-15T00:46:24;1.65;;;1.55;;
22234;SDS011;11286;45.596;5.284;2022-10-15T00:49:19;1.70;;;1.42;;
22234;SDS011;11286;45.596;5.284;2022-10-15T00:51:52;1.75;;;1.65;;
22234;SDS011;11286;45.596;5.284;2022-10-15T00:54:20;2.85;;;1.50;;
22234;SDS011;11286;45.596;5.284;2022-10-15T00:56:47;3.28;;;1.50;;
22234;SDS011;11286;45.596;5.284;2022-10-15T00:59:14;3.25;;;1.50;;
22234;SDS011;11286;45.596;5.284;2022-10-15T01:01:42;3.05;;;1.40;;
22234;SDS011;11286;45.596;5.284;2022-10-15T01:04:08;1.95;;;1.55;;
22234;SDS011;11286;45.596;5.284;2022-10-15T01:06:35;3.25;;;1.50;;
22234;SDS011;11286;45.596;5.284;2022-10-15T01:09:01;3.72;;;1.60;;
22234;SDS011;11286;45.596;5.284;2022-10-15T01:12:01;1.70;;;1.60;;
22234;SDS011;11286;45.596;5.284;2022-10-15T01:17:25;2.58;;;1.50;;
22234;SDS011;11286;45.596;5.284;2022-10-15T01:29:42;1.92;;;1.50;;
22234;SDS011;11286;45.596;5.284;2022-10-15T01:32:28;1.83;;;1.60;;
22234;SDS011;11286;45.596;5.284;2022-10-15T01:37:49;2.08;;;1.50;;
22234;SDS011;11286;45.596;5.284;2022-10-15T01:43:22;4.35;;;1.80;;
22234;SDS011;11286;45.596;5.284;2022-10-15T01:45:58;3.80;;;1.58;;
22234;SDS011;11286;45.596;5.284;2022-10-15T01:48:29;2.55;;;1.58;;
22234;SDS011;11286;45.596;5.284;2022-10-15T01:50:59;4.35;;;1.60;;
22234;SDS011;11286;45.596;5.284;2022-10-15T01:53:27;3.35;;;1.58;;
22234;SDS011;11286;45.596;5.284;2022-10-15T01:55:55;3.55;;;1.70;;
22234;SDS011;11286;45.596;5.284;2022-10-15T01:58:27;1.63;;;1.50;;
22234;SDS011;11286;45.596;5.284;2022-10-15T02:00:54;2.33;;;1.60;;
22234;SDS011;11286;45.596;5.284;2022-10-15T02:03:22;2.28;;;1.60;;
22234;SDS011;11286;45.596;5.284;2022-10-15T02:06:02;3.88;;;1.40;;
22234;SDS011;11286;45.596;5.284;2022-10-15T02:08:38;2.05;;;1.50;;
22234;SDS011;11286;45.596;5.284;2022-10-15T02:11:20;1.55;;;1.20;;
22234;SDS011;11286;45.596;5.284;2022-10-15T02:16:40;2.78;;;1.60;;
22234;SDS011;11286;45.596;5.284;2022-10-15T02:19:14;2.85;;;1.33;;
22234;SDS011;11286;45.596;5.284;2022-10-15T02:24:24;2.45;;;1.20;;
22234;SDS011;11286;45.596;5.284;2022-10-15T02:26:52;2.83;;;1.60;;
22234;SDS011;11286;45.596;5.284;2022-10-15T02:29:21;2.08;;;1.42;;
22234;SDS011;11286;45.596;5.284;2022-10-15T02:31:51;1.73;;;1.40;;
22234;SDS011;11286;45.596;5.284;2022-10-15T02:34:18;2.08;;;1.50;;
22234;SDS011;11286;45.596;5.284;2022-10-15T02:36:46;2.15;;;1.40;;
22234;SDS011;11286;45.596;5.284;2022-10-15T02:39:13;2.28;;;1.40;;
22234;SDS011;11286;45.596;5.284;2022-10-15T02:41:42;2.80;;;1.60;;
22234;SDS011;11286;45.596;5.284;2022-10-15T02:44:07;2.13;;;1.40;;
22234;SDS011;11286;45.596;5.284;2022-10-15T02:46:33;3.47;;;1.42;;
22234;SDS011;11286;45.596;5.284;2022-10-15T02:48:59;1.77;;;1.50;;
22234;SDS011;11286;45.596;5.284;2022-10-15T02:51:25;1.77;;;1.30;;
22234;SDS011;11286;45.596;5.284;2022-10-15T02:53:50;1.58;;;1.48;;
22234;SDS011;11286;45.596;5.284;2022-10-15T02:56:16;1.65;;;1.42;;
22234;SDS011;11286;45.596;5.284;2022-10-15T02:58:41;3.08;;;1.70;;
22234;SDS011;11286;45.596;5.284;2022-10-15T03:01:07;2.60;;;1.58;;
22234;SDS011;11286;45.596;5.284;2022-10-15T03:03:33;3.33;;;1.73;;
22234;SDS011;11286;45.596;5.284;2022-10-15T03:05:58;2.80;;;1.77;;
22234;SDS011;11286;45.596;5.284;2022-10-15T03:08:24;3.28;;;1.70;;
22234;SDS011;11286;45.596;5.284;2022-10-15T03:10:49;3.00;;;1.98;;
22234;SDS011;11286;45.596;5.284;2022-10-15T03:13:15;3.25;;;1.65;;
22234;SDS011;11286;45.596;5.284;2022-10-15T03:15:41;3.40;;;1.60;;
22234;SDS011;11286;45.596;5.284;2022-10-15T03:18:06;2.08;;;1.30;;
22234;SDS011;11286;45.596;5.284;2022-10-15T03:20:32;2.60;;;1.52;;
22234;SDS011;11286;45.596;5.284;2022-10-15T03:22:58;1.80;;;1.20;;
22234;SDS011;11286;45.596;5.284;2022-10-15T03:25:24;1.77;;;1.40;;
22234;SDS011;11286;45.596;5.284;2022-10-15T03:27:49;2.67;;;1.30;;
22234;SDS011;11286;45.596;5.284;2022-10-15T03:30:17;3.75;;;1.80;;
22234;SDS011;11286;45.596;5.284;2022-10-15T03:32:43;3.42;;;1.80;;
22234;SDS011;11286;45.596;5.284;2022-10-15T03:35:08;2.03;;;1.30;;
22234;SDS011;11286;45.596;5.284;2022-10-15T03:37:34;2.55;;;1.20;;
22234;SDS011;11286;45.596;5.284;2022-10-15T03:40:00;3.28;;;1.60;;
22234;SDS011;11286;45.596;5.284;2022-10-15T03:42:25;1.65;;;1.45;;
22234;SDS011;11286;45.596;5.284;2022-10-15T03:44:51;4.75;;;1.80;;
22234;SDS011;11286;45.596;5.284;2022-10-15T03:47:16;2.13;;;1.60;;
22234;SDS011;11286;45.596;5.284;2022-10-15T03:49:42;4.88;;;1.50;;
22234;SDS011;11286;45.596;5.284;2022-10-15T03:52:08;3.88;;;1.60;;
22234;SDS011;11286;45.596;5.284;2022-10-15T03:54:33;3.08;;;1.45;;
22234;SDS011;11286;45.596;5.284;2022-10-15T03:56:59;2.65;;;1.60;;
22234;SDS011;11286;45.596;5.284;2022-10-15T03:59:25;1.95;;;1.42;;
22234;SDS011;11286;45.596;5.284;2022-10-15T04:01:50;2.50;;;1.20;;
22234;SDS011;11286;45.596;5.284;2022-10-15T04:04:16;1.40;;;1.30;;
22234;SDS011;11286;45.596;5.284;2022-10-15T04:06:42;2.65;;;1.40;;
22234;SDS011;11286;45.596;5.284;2022-10-15T04:09:11;2.47;;;1.40;;
22234;SDS011;11286;45.596;5.284;2022-10-15T04:11:37;1.40;;;1.30;;
22234;SDS011;11286;45.596;5.284;2022-10-15T04:14:03;3.08;;;1.30;;
22234;SDS011;11286;45.596;5.284;2022-10-15T04:16:29;3.20;;;1.50;;
22234;SDS011;11286;45.596;5.284;2022-10-15T04:18:55;1.50;;;1.30;;
22234;SDS011;11286;45.596;5.284;2022-10-15T04:21:22;3.00;;;1.50;;
22234;SDS011;11286;45.596;5.284;2022-10-15T04:23:48;3.50;;;1.45;;
22234;SDS011;11286;45.596;5.284;2022-10-15T04:26:14;2.58;;;1.30;;
22234;SDS011;11286;45.596;5.284;2022-10-15T04:28:40;1.50;;;1.40;;
22234;SDS011;11286;45.596;5.284;2022-10-15T04:31:05;2.08;;;1.40;;
22234;SDS011;11286;45.596;5.284;2022-10-15T04:33:31;3.83;;;1.50;;
22234;SDS011;11286;45.596;5.284;2022-10-15T04:35:58;3.17;;;1.25;;
22234;SDS011;11286;45.596;5.284;2022-10-15T04:38:24;2.95;;;1.40;;
22234;SDS011;11286;45.596;5.284;2022-10-15T04:40:57;2.05;;;1.45;;
22234;SDS011;11286;45.596;5.284;2022-10-15T04:43:24;4.05;;;1.60;;
22234;SDS011;11286;45.596;5.284;2022-10-15T04:45:50;1.95;;;1.40;;
22234;SDS011;11286;45.596;5.284;2022-10-15T04:48:15;2.55;;;1.50;;
22234;SDS011;11286;45.596;5.284;2022-10-15T04:50:41;3.17;;;1.52;;
22234;SDS011;11286;45.596;5.284;2022-10-15T04:53:06;1.40;;;1.30;;
22234;SDS011;11286;45.596;5.284;2022-10-15T04:55:32;1.60;;;1.30;;
22234;SDS011;11286;45.596;5.284;2022-10-15T04:57:58;3.92;;;1.50;;
22234;SDS011;11286;45.596;5.284;2022-10-15T05:00:23;3.47;;;1.25;;
22234;SDS011;11286;45.596;5.284;2022-10-15T05:02:49;2.50;;;1.73;;
22234;SDS011;11286;45.596;5.284;2022-10-15T05:05:15;7.20;;;1.80;;
22234;SDS011;11286;45.596;5.284;2022-10-15T05:07:40;1.88;;;1.30;;
22234;SDS011;11286;45.596;5.284;2022-10-15T05:10:06;2.17;;;1.60;;
22234;SDS011;11286;45.596;5.284;2022-10-15T05:12:32;1.40;;;1.30;;
22234;SDS011;11286;45.596;5.284;2022-10-15T05:14:57;3.35;;;1.60;;
22234;SDS011;11286;45.596;5.284;2022-10-15T05:17:23;2.53;;;1.40;;
22234;SDS011;11286;45.596;5.284;2022-10-15T05:19:48;3.50;;;1.55;;
22234;SDS011;11286;45.596;5.284;2022-10-15T05:22:14;2.60;;;1.50;;
22234;SDS011;11286;45.596;5.284;2022-10-15T05:24:40;1.95;;;1.30;;
22234;SDS011;11286;45.596;5.284;2022-10-15T05:27:05;2.35;;;1.42;;
22234;SDS011;11286;45.596;5.284;2022-10-15T05:29:31;2.53;;;1.40;;
22234;SDS011;11286;45.596;5.284;2022-10-15T05:31:57;2.28;;;1.20;;
22234;SDS011;11286;45.596;5.284;2022-10-15T05:34:23;2.60;;;1.27;;
22234;SDS011;11286;45.596;5.284;2022-10-15T05:36:50;3.35;;;1.70;;
22234;SDS011;11286;45.596;5.284;2022-10-15T05:39:16;2.05;;;1.67;;
22234;SDS011;11286;45.596;5.284;2022-10-15T05:41:42;3.67;;;2.10;;
22234;SDS011;11286;45.596;5.284;2022-10-15T05:44:07;2.10;;;1.52;;
22234;SDS011;11286;45.596;5.284;2022-10-15T05:46:33;3.13;;;1.88;;
22234;SDS011;11286;45.596;5.284;2022-10-15T05:48:58;2.22;;;1.55;;
22234;SDS011;11286;45.596;5.284;2022-10-15T05:51:25;2.35;;;1.45;;
22234;SDS011;11286;45.596;5.284;2022-10-15T05:53:52;1.80;;;1.40;;
22234;SDS011;11286;45.596;5.284;2022-10-15T05:56:18;3.45;;;1.85;;
22234;SDS011;11286;45.596;5.284;2022-10-15T05:58:43;4.45;;;1.75;;
22234;SDS011;11286;45.596;5.284;2022-10-15T06:01:10;1.80;;;1.35;;
22234;SDS011;11286;45.596;5.284;2022-10-15T06:03:36;3.00;;;1.50;;
22234;SDS011;11286;45.596;5.284;2022-10-15T06:06:03;5.40;;;1.42;;
22234;SDS011;11286;45.596;5.284;2022-10-15T06:08:29;3.63;;;1.40;;
22234;SDS011;11286;45.596;5.284;2022-10-15T06:11:00;1.80;;;1.52;;
22234;SDS011;11286;45.596;5.284;2022-10-15T06:13:27;5.90;;;1.55;;
22234;SDS011;11286;45.596;5.284;2022-10-15T06:15:53;2.47;;;1.55;;
22234;SDS011;11286;45.596;5.284;2022-10-15T06:18:18;2.17;;;1.20;;
22234;SDS011;11286;45.596;5.284;2022-10-15T06:20:49;4.03;;;1.58;;
22234;SDS011;11286;45.596;5.284;2022-10-15T06:23:16;2.10;;;1.40;;
22234;SDS011;11286;45.596;5.284;2022-10-15T06:25:41;2.72;;;1.27;;
22234;SDS011;11286;45.596;5.284;2022-10-15T06:28:07;3.75;;;1.55;;
22234;SDS011;11286;45.596;5.284;2022-10-15T06:30:33;2.70;;;1.52;;
22234;SDS011;11286;45.596;5.284;2022-10-15T06:32:59;2.78;;;1.45;;
22234;SDS011;11286;45.596;5.284;2022-10-15T06:35:26;2.38;;;1.30;;
22234;SDS011;11286;45.596;5.284;2022-10-15T06:37:54;2.40;;;1.48;;
22234;SDS011;11286;45.596;5.284;2022-10-15T06:40:20;2.58;;;1.30;;
22234;SDS011;11286;45.596;5.284;2022-10-15T06:42:46;3.13;;;1.50;;
22234;SDS011;11286;45.596;5.284;2022-10-15T06:45:11;3.10;;;2.20;;
22234;SDS011;11286;45.596;5.284;2022-10-15T06:47:40;2.63;;;1.80;;
22234;SDS011;11286;45.596;5.284;2022-10-15T06:50:06;4.13;;;1.60;;
22234;SDS011;11286;45.596;5.284;2022-10-15T06:52:33;3.22;;;1.52;;
22234;SDS011;11286;45.596;5.284;2022-10-15T06:54:58;2.20;;;1.50;;
22234;SDS011;11286;45.596;5.284;2022-10-15T06:57:26;4.47;;;1.60;;
22234;SDS011;11286;45.596;5.284;2022-10-15T06:59:52;3.65;;;1.60;;
22234;SDS011;11286;45.596;5.284;2022-10-15T07:02:18;2.22;;;1.70;;
22234;SDS011;11286;45.596;5.284;2022-10-15T07:04:44;4.50;;;1.83;;
22234;SDS011;11286;45.596;5.284;2022-10-15T07:07:10;3.03;;;1.63;;
22234;SDS011;11286;45.596;5.284;2022-10-15T07:09:36;3.60;;;1.60;;
22234;SDS011;11286;45.596;5.284;2022-10-15T07:12:02;3.78;;;1.60;;
22234;SDS011;11286;45.596;5.284;2022-10-15T07:14:28;3.05;;;1.50;;
22234;SDS011;11286;45.596;5.284;2022-10-15T07:16:54;2.17;;;1.55;;
22234;SDS011;11286;45.596;5.284;2022-10-15T07:19:19;1.48;;;1.33;;
22234;SDS011;11286;45.596;5.284;2022-10-15T07:21:45;6.47;;;1.80;;
22234;SDS011;11286;45.596;5.284;2022-10-15T07:24:11;2.42;;;1.38;;
22234;SDS011;11286;45.596;5.284;2022-10-15T07:26:36;2.38;;;1.50;;
22234;SDS011;11286;45.596;5.284;2022-10-15T07:29:02;2.20;;;1.50;;
22234;SDS011;11286;45.596;5.284;2022-10-15T07:31:28;3.85;;;1.70;;
22234;SDS011;11286;45.596;5.284;2022-10-15T07:33:54;2.92;;;1.85;;
22234;SDS011;11286;45.596;5.284;2022-10-15T07:36:20;2.53;;;1.63;;
22234;SDS011;11286;45.596;5.284;2022-10-15T07:38:46;2.70;;;1.50;;
22234;SDS011;11286;45.596;5.284;2022-10-15T07:41:11;3.13;;;1.75;;
22234;SDS011;11286;45.596;5.284;2022-10-15T07:43:38;4.45;;;1.40;;
22234;SDS011;11286;45.596;5.284;2022-10-15T07:46:03;3.45;;;1.63;;
22234;SDS011;11286;45.596;5.284;2022-10-15T07:48:29;5.15;;;1.80;;
22234;SDS011;11286;45.596;5.284;2022-10-15T07:50:56;3.85;;;1.60;;
22234;SDS011;11286;45.596;5.284;2022-10-15T07:53:26;3.38;;;1.92;;
22234;SDS011;11286;45.596;5.284;2022-10-15T07:55:52;4.88;;;2.05;;
22234;SDS011;11286;45.596;5.284;2022-10-15T07:58:18;2.97;;;1.83;;
22234;SDS011;11286;45.596;5.284;2022-10-15T08:00:44;6.55;;;2.13;;
22234;SDS011;11286;45.596;5.284;2022-10-15T08:03:09;3.60;;;1.95;;
22234;SDS011;11286;45.596;5.284;2022-10-15T08:05:35;4.70;;;2.10;;
22234;SDS011;11286;45.596;5.284;2022-10-15T08:08:00;5.80;;;1.70;;
22234;SDS011;11286;45.596;5.284;2022-10-15T08:10:26;3.70;;;2.20;;
22234;SDS011;11286;45.596;5.284;2022-10-15T08:12:52;6.53;;;2.40;;
22234;SDS011;11286;45.596;5.284;2022-10-15T08:15:18;7.68;;;2.72;;
22234;SDS011;11286;45.596;5.284;2022-10-15T08:17:43;5.38;;;2.08;;
22234;SDS011;11286;45.596;5.284;2022-10-15T08:20:09;3.80;;;1.90;;
22234;SDS011;11286;45.596;5.284;2022-10-15T08:22:35;4.32;;;2.30;;
22234;SDS011;11286;45.596;5.284;2022-10-15T08:25:01;4.70;;;2.03;;
22234;SDS011;11286;45.596;5.284;2022-10-15T08:27:27;7.97;;;2.00;;
22234;SDS011;11286;45.596;5.284;2022-10-15T08:29:53;7.07;;;1.90;;
22234;SDS011;11286;45.596;5.284;2022-10-15T08:32:18;5.32;;;2.03;;
22234;SDS011;11286;45.596;5.284;2022-10-15T08:34:44;6.30;;;2.70;;
22234;SDS011;11286;45.596;5.284;2022-10-15T08:37:09;2.83;;;1.80;;
22234;SDS011;11286;45.596;5.284;2022-10-15T08:39:35;5.20;;;2.00;;
22234;SDS011;11286;45.596;5.284;2022-10-15T08:42:04;5.30;;;1.85;;
22234;SDS011;11286;45.596;5.284;2022-10-15T08:50:05;2.30;;;1.30;;
22234;SDS011;11286;45.596;5.284;2022-10-15T08:52:43;5.75;;;2.10;;
22234;SDS011;11286;45.596;5.284;2022-10-15T08:55:11;4.43;;;1.80;;
22234;SDS011;11286;45.596;5.284;2022-10-15T08:57:49;4.05;;;1.48;;
22234;SDS011;11286;45.596;5.284;2022-10-15T09:00:28;6.05;;;1.60;;
22234;SDS011;11286;45.596;5.284;2022-10-15T09:11:15;3.33;;;1.30;;
22234;SDS011;11286;45.596;5.284;2022-10-15T09:13:52;2.00;;;1.20;;
22234;SDS011;11286;45.596;5.284;2022-10-15T09:16:21;1.40;;;1.13;;
22234;SDS011;11286;45.596;5.284;2022-10-15T09:18:51;2.13;;;1.35;;
22234;SDS011;11286;45.596;5.284;2022-10-15T09:21:22;2.90;;;1.30;;
22234;SDS011;11286;45.596;5.284;2022-10-15T09:23:50;2.10;;;1.10;;
22234;SDS011;11286;45.596;5.284;2022-10-15T09:32:05;1.40;;;1.10;;
22234;SDS011;11286;45.596;5.284;2022-10-15T09:40:51;2.63;;;1.20;;
22234;SDS011;11286;45.596;5.284;2022-10-15T09:43:40;2.63;;;2.13;;
22234;SDS011;11286;45.596;5.284;2022-10-15T09:46:08;1.52;;;0.70;;
22234;SDS011;11286;45.596;5.284;2022-10-15T09:48:36;0.88;;;0.82;;
22234;SDS011;11286;45.596;5.284;2022-10-15T09:56:42;1.63;;;1.20;;
22234;SDS011;11286;45.596;5.284;2022-10-15T09:59:27;1.83;;;1.30;;
22234;SDS011;11286;45.596;5.284;2022-10-15T10:02:03;2.53;;;1.20;;
22234;SDS011;11286;45.596;5.284;2022-10-15T10:04:41;1.25;;;1.10;;
22234;SDS011;11286;45.596;5.284;2022-10-15T10:07:07;0.95;;;0.85;;
22234;SDS011;11286;45.596;5.284;2022-10-15T10:09:52;2.80;;;1.20;;
22234;SDS011;11286;45.596;5.284;2022-10-15T10:12:21;1.83;;;1.00;;
22234;SDS011;11286;45.596;5.284;2022-10-15T10:14:54;0.98;;;0.80;;
22234;SDS011;11286;45.596;5.284;2022-10-15T10:17:53;0.98;;;0.60;;
22234;SDS011;11286;45.596;5.284;2022-10-15T10:20:21;1.90;;;0.70;;
22234;SDS011;11286;45.596;5.284;2022-10-15T10:22:55;0.80;;;0.60;;
22234;SDS011;11286;45.596;5.284;2022-10-15T10:27:50;0.70;;;0.70;;
22234;SDS011;11286;45.596;5.284;2022-10-15T10:30:39;0.73;;;0.73;;
22234;SDS011;11286;45.596;5.284;2022-10-15T10:33:18;0.77;;;0.70;;
22234;SDS011;11286;45.596;5.284;2022-10-15T10:35:51;0.50;;;0.50;;
22234;SDS011;11286;45.596;5.284;2022-10-15T10:38:24;2.65;;;0.77;;
22234;SDS011;11286;45.596;5.284;2022-10-15T10:40:54;1.05;;;0.63;;
22234;SDS011;11286;45.596;5.284;2022-10-15T10:43:27;1.25;;;0.90;;
22234;SDS011;11286;45.596;5.284;2022-10-15T10:45:57;0.82;;;0.70;;
22234;SDS011;11286;45.596;5.284;2022-10-15T10:48:36;1.05;;;0.70;;
22234;SDS011;11286;45.596;5.284;2022-10-15T10:51:08;0.70;;;0.60;;
22234;SDS011;11286;45.596;5.284;2022-10-15T10:53:57;0.98;;;0.80;;
22234;SDS011;11286;45.596;5.284;2022-10-15T10:56:33;1.38;;;0.70;;
22234;SDS011;11286;45.596;5.284;2022-10-15T11:01:41;0.60;;;0.60;;
22234;SDS011;11286;45.596;5.284;2022-10-15T11:04:14;0.85;;;0.70;;
22234;SDS011;11286;45.596;5.284;2022-10-15T11:14:52;1.85;;;0.60;;
22234;SDS011;11286;45.596;5.284;2022-10-15T11:18:16;1.08;;;0.68;;
22234;SDS011;11286;45.596;5.284;2022-10-15T11:23:37;0.68;;;0.50;;
22234;SDS011;11286;45.596;5.284;2022-10-15T11:26:31;0.77;;;0.68;;
22234;SDS011;11286;45.596;5.284;2022-10-15T11:32:20;0.63;;;0.60;;
22234;SDS011;11286;45.596;5.284;2022-10-15T11:37:50;0.75;;;0.50;;
22234;SDS011;11286;45.596;5.284;2022-10-15T11:40:31;0.95;;;0.60;;
22234;SDS011;11286;45.596;5.284;2022-10-15T11:43:26;1.17;;;0.63;;
22234;SDS011;11286;45.596;5.284;2022-10-15T11:46:16;0.60;;;0.60;;
22234;SDS011;11286;45.596;5.284;2022-10-15T11:57:26;0.70;;;0.70;;
22234;SDS011;11286;45.596;5.284;2022-10-15T11:59:57;0.55;;;0.50;;
22234;SDS011;11286;45.596;5.284;2022-10-15T12:04:59;1.27;;;0.70;;
22234;SDS011;11286;45.596;5.284;2022-10-15T12:07:39;0.65;;;0.50;;
22234;SDS011;11286;45.596;5.284;2022-10-15T12:12:37;2.10;;;0.90;;
22234;SDS011;11286;45.596;5.284;2022-10-15T12:20:28;0.70;;;0.70;;
22234;SDS011;11286;45.596;5.284;2022-10-15T12:22:56;0.70;;;0.70;;
22234;SDS011;11286;45.596;5.284;2022-10-15T12:28:01;2.25;;;0.75;;
22234;SDS011;11286;45.596;5.284;2022-10-15T12:30:31;0.50;;;0.50;;
22234;SDS011;11286;45.596;5.284;2022-10-15T12:33:01;0.90;;;0.60;;
22234;SDS011;11286;45.596;5.284;2022-10-15T12:35:52;1.45;;;0.75;;
22234;SDS011;11286;45.596;5.284;2022-10-15T12:38:27;1.20;;;0.70;;
22234;SDS011;11286;45.596;5.284;2022-10-15T12:41:03;0.77;;;0.73;;
22234;SDS011;11286;45.596;5.284;2022-10-15T12:43:40;1.98;;;0.70;;
22234;SDS011;11286;45.596;5.284;2022-10-15T12:46:09;0.60;;;0.55;;
22234;SDS011;11286;45.596;5.284;2022-10-15T12:48:38;1.73;;;0.60;;
22234;SDS011;11286;45.596;5.284;2022-10-15T12:53:41;1.38;;;0.80;;
22234;SDS011;11286;45.596;5.284;2022-10-15T12:58:43;1.40;;;0.90;;
22234;SDS011;11286;45.596;5.284;2022-10-15T13:08:52;1.65;;;0.60;;
22234;SDS011;11286;45.596;5.284;2022-10-15T13:11:20;0.65;;;0.65;;
22234;SDS011;11286;45.596;5.284;2022-10-15T13:13:54;0.77;;;0.70;;
22234;SDS011;11286;45.596;5.284;2022-10-15T13:16:27;0.60;;;0.50;;
22234;SDS011;11286;45.596;5.284;2022-10-15T13:18:54;1.90;;;0.70;;
22234;SDS011;11286;45.596;5.284;2022-10-15T13:21:21;0.75;;;0.70;;
22234;SDS011;11286;45.596;5.284;2022-10-15T13:24:09;0.60;;;0.60;;
22234;SDS011;11286;45.596;5.284;2022-10-15T13:26:35;1.40;;;0.73;;
22234;SDS011;11286;45.596;5.284;2022-10-15T13:29:01;1.25;;;0.88;;
22234;SDS011;11286;45.596;5.284;2022-10-15T13:31:30;1.20;;;0.90;;
22234;SDS011;11286;45.596;5.284;2022-10-15T13:34:02;1.80;;;0.88;;
22234;SDS011;11286;45.596;5.284;2022-10-15T13:36:56;1.33;;;0.85;;
22234;SDS011;11286;45.596;5.284;2022-10-15T13:44:56;1.48;;;1.00;;
22234;SDS011;11286;45.596;5.284;2022-10-15T13:47:46;0.60;;;0.60;;
22234;SDS011;11286;45.596;5.284;2022-10-15T13:52:50;1.02;;;0.90;;
22234;SDS011;11286;45.596;5.284;2022-10-15T13:55:27;2.25;;;0.75;;
22234;SDS011;11286;45.596;5.284;2022-10-15T13:57:59;1.58;;;0.90;;
22234;SDS011;11286;45.596;5.284;2022-10-15T14:00:30;1.33;;;0.77;;
22234;SDS011;11286;45.596;5.284;2022-10-15T14:05:33;1.27;;;0.77;;
22234;SDS011;11286;45.596;5.284;2022-10-15T14:07:58;1.30;;;0.60;;
22234;SDS011;11286;45.596;5.284;2022-10-15T14:10:25;1.13;;;0.70;;
22234;SDS011;11286;45.596;5.284;2022-10-15T14:12:51;0.80;;;0.80;;
22234;SDS011;11286;45.596;5.284;2022-10-15T14:18:13;0.60;;;0.60;;
22234;SDS011;11286;45.596;5.284;2022-10-15T14:20:44;3.30;;;0.65;;
22234;SDS011;11286;45.596;5.284;2022-10-15T14:23:15;0.80;;;0.70;;
22234;SDS011;11286;45.596;5.284;2022-10-15T14:25:44;2.17;;;0.73;;
22234;SDS011;11286;45.596;5.284;2022-10-15T14:28:19;1.65;;;0.70;;
22234;SDS011;11286;45.596;5.284;2022-10-15T14:30:46;1.10;;;0.80;;
22234;SDS011;11286;45.596;5.284;2022-10-15T14:36:04;1.10;;;0.80;;
22234;SDS011;11286;45.596;5.284;2022-10-15T14:38:36;1.75;;;0.82;;
22234;SDS011;11286;45.596;5.284;2022-10-15T14:46:40;0.70;;;0.70;;
22234;SDS011;11286;45.596;5.284;2022-10-15T14:49:13;1.13;;;1.02;;
22234;SDS011;11286;45.596;5.284;2022-10-15T14:51:40;1.33;;;0.80;;
22234;SDS011;11286;45.596;5.284;2022-10-15T14:54:08;0.68;;;0.68;;
22234;SDS011;11286;45.596;5.284;2022-10-15T14:56:42;1.85;;;0.70;;
22234;SDS011;11286;45.596;5.284;2022-10-15T14:59:12;1.48;;;1.00;;
22234;SDS011;11286;45.596;5.284;2022-10-15T15:01:49;0.77;;;0.70;;
22234;SDS011;11286;45.596;5.284;2022-10-15T15:04:39;2.00;;;0.88;;
22234;SDS011;11286;45.596;5.284;2022-10-15T15:07:24;3.10;;;0.95;;
22234;SDS011;11286;45.596;5.284;2022-10-15T15:09:50;1.67;;;0.90;;
22234;SDS011;11286;45.596;5.284;2022-10-15T15:12:17;0.80;;;0.80;;
22234;SDS011;11286;45.596;5.284;2022-10-15T15:14:45;0.75;;;0.75;;
22234;SDS011;11286;45.596;5.284;2022-10-15T15:17:13;3.00;;;0.90;;
22234;SDS011;11286;45.596;5.284;2022-10-15T15:19:43;0.80;;;0.70;;
22234;SDS011;11286;45.596;5.284;2022-10-15T15:22:12;2.17;;;0.90;;
22234;SDS011;11286;45.596;5.284;2022-10-15T15:24:41;1.38;;;0.90;;
22234;SDS011;11286;45.596;5.284;2022-10-15T15:27:10;1.70;;;1.05;;
22234;SDS011;11286;45.596;5.284;2022-10-15T15:29:49;1.48;;;0.82;;
22234;SDS011;11286;45.596;5.284;2022-10-15T15:32:16;1.80;;;1.05;;
22234;SDS011;11286;45.596;5.284;2022-10-15T15:34:42;1.85;;;1.00;;
22234;SDS011;11286;45.596;5.284;2022-10-15T15:37:11;2.50;;;1.00;;
22234;SDS011;11286;45.596;5.284;2022-10-15T15:39:44;2.03;;;0.77;;
22234;SDS011;11286;45.596;5.284;2022-10-15T15:42:11;1.33;;;0.80;;
22234;SDS011;11286;45.596;5.284;2022-10-15T15:44:54;1.27;;;0.80;;
22234;SDS011;11286;45.596;5.284;2022-10-15T15:47:20;1.58;;;0.82;;
22234;SDS011;11286;45.596;5.284;2022-10-15T15:49:45;2.08;;;0.90;;
22234;SDS011;11286;45.596;5.284;2022-10-15T15:52:11;3.88;;;1.30;;
22234;SDS011;11286;45.596;5.284;2022-10-15T15:54:41;2.10;;;1.02;;
22234;SDS011;11286;45.596;5.284;2022-10-15T15:57:07;1.95;;;0.98;;
22234;SDS011;11286;45.596;5.284;2022-10-15T15:59:32;1.10;;;0.95;;
22234;SDS011;11286;45.596;5.284;2022-10-15T16:01:58;1.55;;;0.90;;
22234;SDS011;11286;45.596;5.284;2022-10-15T16:04:26;2.30;;;0.90;;
22234;SDS011;11286;45.596;5.284;2022-10-15T16:06:51;3.95;;;1.02;;
22234;SDS011;11286;45.596;5.284;2022-10-15T16:09:18;2.47;;;1.40;;
22234;SDS011;11286;45.596;5.284;2022-10-15T16:11:46;2.90;;;1.20;;
22234;SDS011;11286;45.596;5.284;2022-10-15T16:14:13;1.67;;;1.08;;
22234;SDS011;11286;45.596;5.284;2022-10-15T16:16:39;1.23;;;0.93;;
22234;SDS011;11286;45.596;5.284;2022-10-15T16:19:05;1.45;;;0.90;;
22234;SDS011;11286;45.596;5.284;2022-10-15T16:21:31;1.25;;;1.00;;
22234;SDS011;11286;45.596;5.284;2022-10-15T16:23:58;1.40;;;1.02;;
22234;SDS011;11286;45.596;5.284;2022-10-15T16:26:23;2.28;;;1.10;;
22234;SDS011;11286;45.596;5.284;2022-10-15T16:28:49;1.08;;;0.98;;
22234;SDS011;11286;45.596;5.284;2022-10-15T16:31:16;1.25;;;1.10;;
22234;SDS011;11286;45.596;5.284;2022-10-15T16:33:43;1.75;;;1.15;;
22234;SDS011;11286;45.596;5.284;2022-10-15T16:36:09;1.20;;;1.10;;
22234;SDS011;11286;45.596;5.284;2022-10-15T16:38:35;3.45;;;1.00;;
22234;SDS011;11286;45.596;5.284;2022-10-15T16:41:02;1.95;;;1.20;;
22234;SDS011;11286;45.596;5.284;2022-10-15T16:43:27;1.15;;;1.00;;
22234;SDS011;11286;45.596;5.284;2022-10-15T16:45:54;1.88;;;1.20;;
22234;SDS011;11286;45.596;5.284;2022-10-15T16:48:20;2.95;;;1.83;;
22234;SDS011;11286;45.596;5.284;2022-10-15T16:50:46;3.40;;;1.58;;
22234;SDS011;11286;45.596;5.284;2022-10-15T16:53:12;1.85;;;1.27;;
22234;SDS011;11286;45.596;5.284;2022-10-15T16:55:38;2.88;;;1.33;;
22234;SDS011;11286;45.596;5.284;2022-10-15T16:58:04;1.83;;;1.52;;
22234;SDS011;11286;45.596;5.284;2022-10-15T17:00:29;2.95;;;1.30;;
22234;SDS011;11286;45.596;5.284;2022-10-15T17:02:55;3.92;;;1.55;;
22234;SDS011;11286;45.596;5.284;2022-10-15T17:05:20;0.73;;;0.73;;
22234;SDS011;11286;45.596;5.284;2022-10-15T17:07:46;1.27;;;1.00;;
22234;SDS011;11286;45.596;5.284;2022-10-15T17:10:12;1.58;;;1.10;;
22234;SDS011;11286;45.596;5.284;2022-10-15T17:12:37;2.47;;;1.30;;